createdAt,value
2018-04-27T00:00:05.257Z,7.10
2018-04-27T00:01:05.309Z,7.10
2018-04-27T00:02:05.745Z,7.10
2018-04-27T00:03:05.376Z,7.00
2018-04-27T00:04:06.029Z,7.00
2018-04-27T00:05:05.601Z,7.00
2018-04-27T00:06:05.530Z,7.00
2018-04-27T00:07:10.405Z,7.00
2018-04-27T00:08:05.879Z,7.00
2018-04-27T00:09:05.547Z,7.00
2018-04-27T00:10:13.262Z,6.90
2018-04-27T00:11:08.331Z,6.90
2018-04-27T00:12:05.866Z,6.90
2018-04-27T00:13:05.615Z,6.90
2018-04-27T00:14:09.159Z,6.80
2018-04-27T00:15:05.766Z,6.80
2018-04-27T00:16:05.288Z,6.80
2018-04-27T00:17:05.746Z,6.80
2018-04-27T00:18:05.485Z,6.70
2018-04-27T00:19:05.879Z,6.70
2018-04-27T00:20:10.665Z,6.60
2018-04-27T00:21:09.430Z,6.60
2018-04-27T00:22:05.961Z,6.60
2018-04-27T00:23:08.661Z,6.60
2018-04-27T00:24:05.113Z,6.60
2018-04-27T00:25:08.318Z,6.60
2018-04-27T00:26:08.850Z,6.60
2018-04-27T00:27:05.299Z,6.50
2018-04-27T00:28:05.871Z,6.50
2018-04-27T00:29:05.531Z,6.50
2018-04-27T00:30:10.584Z,6.50
2018-04-27T00:31:06.040Z,6.50
2018-04-27T00:32:08.512Z,6.50
2018-04-27T00:33:11.177Z,6.40
2018-04-27T00:34:05.695Z,6.50
2018-04-27T00:35:05.807Z,6.50
2018-04-27T00:36:05.406Z,6.40
2018-04-27T00:37:09.615Z,6.40
2018-04-27T00:38:05.097Z,6.30
2018-04-27T00:39:08.534Z,6.30
2018-04-27T00:40:08.651Z,6.30
2018-04-27T00:41:09.360Z,6.20
2018-04-27T00:42:08.462Z,6.20
2018-04-27T00:43:05.984Z,6.20
2018-04-27T00:44:08.935Z,6.20
2018-04-27T00:45:08.328Z,6.20
2018-04-27T00:46:10.934Z,6.20
2018-04-27T00:47:05.303Z,6.20
2018-04-27T00:48:05.838Z,6.20
2018-04-27T00:49:05.647Z,6.20
2018-04-27T00:50:05.720Z,6.10
2018-04-27T00:51:05.557Z,6.10
2018-04-27T00:52:13.287Z,6.10
2018-04-27T00:53:05.741Z,6.10
2018-04-27T00:54:05.398Z,6.10
2018-04-27T00:55:08.904Z,6.10
2018-04-27T00:56:08.049Z,6.10
2018-04-27T00:57:08.673Z,6.10
2018-04-27T00:58:05.136Z,6.10
2018-04-27T00:59:05.681Z,6.10
2018-04-27T01:00:10.428Z,6.10
2018-04-27T01:01:05.820Z,6.10
2018-04-27T01:02:05.235Z,6.10
2018-04-27T01:03:06.141Z,6.10
2018-04-27T01:04:13.311Z,6.10
2018-04-27T01:05:08.230Z,6.10
2018-04-27T01:06:05.810Z,6.10
2018-04-27T01:07:08.566Z,6.10
2018-04-27T01:08:08.877Z,6.00
2018-04-27T01:09:05.434Z,6.00
2018-04-27T01:10:05.724Z,6.00
2018-04-27T01:11:05.258Z,6.00
2018-04-27T01:12:10.666Z,6.00
2018-04-27T01:13:06.056Z,6.00
2018-04-27T01:14:06.035Z,6.00
2018-04-27T01:15:05.745Z,6.00
2018-04-27T01:16:05.885Z,6.00
2018-04-27T01:17:12.816Z,6.00
2018-04-27T01:18:05.274Z,6.00
2018-04-27T01:19:05.992Z,5.90
2018-04-27T01:20:06.034Z,5.90
2018-04-27T01:21:05.082Z,5.90
2018-04-27T01:22:05.645Z,5.90
2018-04-27T01:23:08.758Z,5.90
2018-04-27T01:24:10.436Z,5.80
2018-04-27T01:25:09.090Z,5.80
2018-04-27T01:26:05.725Z,5.80
2018-04-27T01:27:12.767Z,5.80
2018-04-27T01:28:08.954Z,5.80
2018-04-27T01:29:05.920Z,5.80
2018-04-27T01:30:08.048Z,5.70
2018-04-27T01:31:05.605Z,5.70
2018-04-27T01:32:08.038Z,5.70
2018-04-27T01:33:06.675Z,5.70
2018-04-27T01:34:08.354Z,5.60
2018-04-27T01:35:11.096Z,5.60
2018-04-27T01:36:05.562Z,5.70
2018-04-27T01:37:07.792Z,5.70
2018-04-27T01:38:05.260Z,5.60
2018-04-27T01:39:05.708Z,5.60
2018-04-27T01:40:05.508Z,5.60
2018-04-27T01:41:05.557Z,5.60
2018-04-27T01:42:07.977Z,5.60
2018-04-27T01:43:05.412Z,5.60
2018-04-27T01:44:05.419Z,5.50
2018-04-27T01:45:05.246Z,5.60
2018-04-27T01:46:05.914Z,5.60
2018-04-27T01:47:08.056Z,5.60
2018-04-27T01:48:05.289Z,5.50
2018-04-27T01:49:05.638Z,5.50
2018-04-27T01:50:10.432Z,5.50
2018-04-27T01:51:06.151Z,5.50
2018-04-27T01:52:10.878Z,5.50
2018-04-27T01:53:08.793Z,5.50
2018-04-27T01:54:05.281Z,5.50
2018-04-27T01:55:08.387Z,5.50
2018-04-27T01:56:08.428Z,5.40
2018-04-27T01:57:07.083Z,5.50
2018-04-27T01:58:05.293Z,5.40
2018-04-27T01:59:08.061Z,5.40
2018-04-27T02:00:10.736Z,5.40
2018-04-27T02:01:05.301Z,5.40
2018-04-27T02:02:05.907Z,5.40
2018-04-27T02:03:08.693Z,5.30
2018-04-27T02:04:10.270Z,5.30
2018-04-27T02:05:05.538Z,5.40
2018-04-27T02:06:05.463Z,5.30
2018-04-27T02:07:06.099Z,5.30
2018-04-27T02:08:05.894Z,5.30
2018-04-27T02:09:05.497Z,5.30
2018-04-27T02:10:05.900Z,5.30
2018-04-27T02:11:08.031Z,5.30
2018-04-27T02:12:10.614Z,5.30
2018-04-27T02:13:08.648Z,5.30
2018-04-27T02:14:10.222Z,5.20
2018-04-27T02:15:05.654Z,5.20
2018-04-27T02:16:05.363Z,5.20
2018-04-27T02:17:05.508Z,5.30
2018-04-27T02:18:08.756Z,5.20
2018-04-27T02:19:05.225Z,5.20
2018-04-27T02:20:06.078Z,5.20
2018-04-27T02:21:09.275Z,5.20
2018-04-27T02:22:06.116Z,5.20
2018-04-27T02:23:10.677Z,5.10
2018-04-27T02:24:05.978Z,5.10
2018-04-27T02:25:05.714Z,5.10
2018-04-27T02:26:05.915Z,5.10
2018-04-27T02:27:05.980Z,5.10
2018-04-27T02:28:06.040Z,5.10
2018-04-27T02:29:05.812Z,5.00
2018-04-27T02:30:10.844Z,5.00
2018-04-27T02:31:12.927Z,4.90
2018-04-27T02:32:05.293Z,5.00
2018-04-27T02:33:05.326Z,5.00
2018-04-27T02:34:05.880Z,4.90
2018-04-27T02:35:05.513Z,5.00
2018-04-27T02:36:05.367Z,4.90
2018-04-27T02:37:11.085Z,4.90
2018-04-27T02:38:05.361Z,4.90
2018-04-27T02:39:05.846Z,4.90
2018-04-27T02:40:06.091Z,4.90
2018-04-27T02:41:05.680Z,4.90
2018-04-27T02:42:09.054Z,4.90
2018-04-27T02:43:10.695Z,4.90
2018-04-27T02:44:05.352Z,4.80
2018-04-27T02:45:10.568Z,4.90
2018-04-27T02:46:11.232Z,4.80
2018-04-27T02:47:05.597Z,4.80
2018-04-27T02:48:05.917Z,4.80
2018-04-27T02:49:08.108Z,4.80
2018-04-27T02:50:05.561Z,4.80
2018-04-27T02:51:10.490Z,4.80
2018-04-27T02:52:05.746Z,4.80
2018-04-27T02:53:05.302Z,4.80
2018-04-27T02:54:09.280Z,4.80
2018-04-27T02:55:08.989Z,4.80
2018-04-27T02:56:05.415Z,4.80
2018-04-27T02:57:08.463Z,4.80
2018-04-27T02:58:05.965Z,4.80
2018-04-27T02:59:05.606Z,4.90
2018-04-27T03:00:05.573Z,4.90
2018-04-27T03:01:08.082Z,4.90
2018-04-27T03:02:05.708Z,4.80
2018-04-27T03:03:10.370Z,4.90
2018-04-27T03:04:05.703Z,4.80
2018-04-27T03:05:08.048Z,4.80
2018-04-27T03:06:05.632Z,4.90
2018-04-27T03:07:05.735Z,4.90
2018-04-27T03:08:08.803Z,4.90
2018-04-27T03:09:05.369Z,4.80
2018-04-27T03:10:05.652Z,4.90
2018-04-27T03:11:05.212Z,4.90
2018-04-27T03:12:07.794Z,4.90
2018-04-27T03:13:05.393Z,4.80
2018-04-27T03:14:05.871Z,4.90
2018-04-27T03:15:05.484Z,4.90
2018-04-27T03:16:06.134Z,4.80
2018-04-27T03:17:10.693Z,4.80
2018-04-27T03:18:06.089Z,4.80
2018-04-27T03:19:10.367Z,4.80
2018-04-27T03:20:10.971Z,4.80
2018-04-27T03:21:05.435Z,4.80
2018-04-27T03:22:06.116Z,4.80
2018-04-27T03:23:05.683Z,4.80
2018-04-27T03:24:05.493Z,4.80
2018-04-27T03:25:05.458Z,4.80
2018-04-27T03:26:05.819Z,4.70
2018-04-27T03:27:06.226Z,4.70
2018-04-27T03:28:09.120Z,4.70
2018-04-27T03:29:10.828Z,4.70
2018-04-27T03:30:10.243Z,4.70
2018-04-27T03:31:05.761Z,4.70
2018-04-27T03:32:08.587Z,4.70
2018-04-27T03:33:06.146Z,4.60
2018-04-27T03:34:08.084Z,4.60
2018-04-27T03:35:05.677Z,4.60
2018-04-27T03:36:06.143Z,4.60
2018-04-27T03:37:05.962Z,4.60
2018-04-27T03:38:09.300Z,4.60
2018-04-27T03:39:05.889Z,4.60
2018-04-27T03:40:08.355Z,4.70
2018-04-27T03:41:10.828Z,4.70
2018-04-27T03:42:05.343Z,4.60
2018-04-27T03:43:10.511Z,4.60
2018-04-27T03:44:06.174Z,4.60
2018-04-27T03:45:05.245Z,4.60
2018-04-27T03:46:05.918Z,4.60
2018-04-27T03:47:08.248Z,4.60
2018-04-27T03:48:05.833Z,4.60
2018-04-27T03:49:13.140Z,4.60
2018-04-27T03:50:08.114Z,4.60
2018-04-27T03:51:05.754Z,4.60
2018-04-27T03:52:05.562Z,4.60
2018-04-27T03:53:05.310Z,4.60
2018-04-27T03:54:06.070Z,4.60
2018-04-27T03:55:05.752Z,4.60
2018-04-27T03:56:05.579Z,4.60
2018-04-27T03:57:05.893Z,4.60
2018-04-27T03:58:10.188Z,4.60
2018-04-27T03:59:05.313Z,4.60
2018-04-27T04:00:07.751Z,4.60
2018-04-27T04:01:05.288Z,4.60
2018-04-27T04:02:05.954Z,4.60
2018-04-27T04:03:05.980Z,4.50
2018-04-27T04:04:06.034Z,4.60
2018-04-27T04:05:05.966Z,4.60
2018-04-27T04:06:05.576Z,4.60
2018-04-27T04:07:08.004Z,4.60
2018-04-27T04:08:05.649Z,4.50
2018-04-27T04:09:05.676Z,4.60
2018-04-27T04:10:05.704Z,4.60
2018-04-27T04:11:06.307Z,4.50
2018-04-27T04:12:06.140Z,4.60
2018-04-27T04:13:06.008Z,4.50
2018-04-27T04:14:05.579Z,4.60
2018-04-27T04:15:05.551Z,4.60
2018-04-27T04:16:08.183Z,4.60
2018-04-27T04:17:05.668Z,4.50
2018-04-27T04:18:08.726Z,4.50
2018-04-27T04:19:08.748Z,4.50
2018-04-27T04:20:07.902Z,4.50
2018-04-27T04:21:05.404Z,4.50
2018-04-27T04:22:05.832Z,4.50
2018-04-27T04:23:05.644Z,4.50
2018-04-27T04:24:06.209Z,4.50
2018-04-27T04:25:11.593Z,4.50
2018-04-27T04:26:06.099Z,4.50
2018-04-27T04:27:05.852Z,4.50
2018-04-27T04:28:05.755Z,4.50
2018-04-27T04:29:08.644Z,4.50
2018-04-27T04:30:05.212Z,4.50
2018-04-27T04:31:05.344Z,4.50
2018-04-27T04:32:05.374Z,4.50
2018-04-27T04:33:06.202Z,4.50
2018-04-27T04:34:07.874Z,4.50
2018-04-27T04:35:08.016Z,4.60
2018-04-27T04:36:10.695Z,4.50
2018-04-27T04:37:07.785Z,4.50
2018-04-27T04:38:07.933Z,4.60
2018-04-27T04:39:10.581Z,4.60
2018-04-27T04:40:08.689Z,4.60
2018-04-27T04:41:05.305Z,4.60
2018-04-27T04:42:05.495Z,4.60
2018-04-27T04:43:05.418Z,4.60
2018-04-27T04:44:05.436Z,4.70
2018-04-27T04:45:06.067Z,4.70
2018-04-27T04:46:05.729Z,4.70
2018-04-27T04:47:05.963Z,4.70
2018-04-27T04:48:05.385Z,4.80
2018-04-27T04:49:05.756Z,4.80
2018-04-27T04:50:05.712Z,4.80
2018-04-27T04:51:05.325Z,4.90
2018-04-27T04:52:05.983Z,4.90
2018-04-27T04:53:10.338Z,5.00
2018-04-27T04:54:08.280Z,5.00
2018-04-27T04:55:05.842Z,5.10
2018-04-27T04:56:05.954Z,5.10
2018-04-27T04:57:06.006Z,5.20
2018-04-27T04:58:08.521Z,5.30
2018-04-27T04:59:06.193Z,5.30
2018-04-27T05:00:05.949Z,5.30
2018-04-27T05:01:05.861Z,5.40
2018-04-27T05:02:10.437Z,5.50
2018-04-27T05:03:06.146Z,5.50
2018-04-27T05:04:05.398Z,5.60
2018-04-27T05:05:09.042Z,5.70
2018-04-27T05:06:08.955Z,5.80
2018-04-27T05:07:13.159Z,5.80
2018-04-27T05:08:05.974Z,5.80
2018-04-27T05:09:05.820Z,5.90
2018-04-27T05:10:05.938Z,5.90
2018-04-27T05:11:10.748Z,6.10
2018-04-27T05:12:05.373Z,6.10
2018-04-27T05:13:10.942Z,6.20
2018-04-27T05:14:05.394Z,6.20
2018-04-27T05:15:05.569Z,6.30
2018-04-27T05:16:05.408Z,6.30
2018-04-27T05:17:07.927Z,6.50
2018-04-27T05:18:05.605Z,6.50
2018-04-27T05:19:09.010Z,6.70
2018-04-27T05:20:05.725Z,6.70
2018-04-27T05:21:05.392Z,6.80
2018-04-27T05:22:10.326Z,7.20
2018-04-27T05:23:05.877Z,7.20
2018-04-27T05:24:06.755Z,7.40
2018-04-27T05:25:10.050Z,7.70
2018-04-27T05:26:05.700Z,7.70
2018-04-27T05:27:09.787Z,7.90
2018-04-27T05:28:08.119Z,8.10
2018-04-27T05:29:08.813Z,8.20
2018-04-27T05:30:07.924Z,8.30
2018-04-27T05:31:10.600Z,8.50
2018-04-27T05:32:05.155Z,8.50
2018-04-27T05:33:05.691Z,8.60
2018-04-27T05:34:08.565Z,9.00
2018-04-27T05:35:09.365Z,9.10
2018-04-27T05:36:06.140Z,9.10
2018-04-27T05:37:05.578Z,9.20
2018-04-27T05:38:05.238Z,9.40
2018-04-27T05:39:06.028Z,9.50
2018-04-27T05:40:06.027Z,9.60
2018-04-27T05:41:06.363Z,9.70
2018-04-27T05:42:09.837Z,9.90
2018-04-27T05:43:06.522Z,9.90
2018-04-27T05:44:05.610Z,10.00
2018-04-27T05:45:06.071Z,10.00
2018-04-27T05:46:05.832Z,10.00
2018-04-27T05:47:13.358Z,10.10
2018-04-27T05:48:05.872Z,10.10
2018-04-27T05:49:05.840Z,10.10
2018-04-27T05:50:08.513Z,10.20
2018-04-27T05:51:06.017Z,10.20
2018-04-27T05:52:05.621Z,10.20
2018-04-27T05:53:05.941Z,10.20
2018-04-27T05:54:05.503Z,10.30
2018-04-27T05:55:08.169Z,10.50
2018-04-27T05:56:10.875Z,10.50
2018-04-27T05:57:10.499Z,10.60
2018-04-27T05:58:10.804Z,10.70
2018-04-27T05:59:05.993Z,10.70
2018-04-27T06:00:08.604Z,10.80
2018-04-27T06:01:08.795Z,10.80
2018-04-27T06:02:08.034Z,10.90
2018-04-27T06:03:08.848Z,10.90
2018-04-27T06:04:10.597Z,11.00
2018-04-27T06:05:09.097Z,11.00
2018-04-27T06:06:05.777Z,11.10
2018-04-27T06:07:05.713Z,11.20
2018-04-27T06:08:08.254Z,11.40
2018-04-27T06:09:05.972Z,11.40
2018-04-27T06:10:06.053Z,11.50
2018-04-27T06:11:06.004Z,11.60
2018-04-27T06:12:10.753Z,11.70
2018-04-27T06:13:05.442Z,11.70
2018-04-27T06:14:06.050Z,11.70
2018-04-27T06:15:05.318Z,11.70
2018-04-27T06:16:05.705Z,11.80
2018-04-27T06:17:08.686Z,11.70
2018-04-27T06:18:05.233Z,11.70
2018-04-27T06:19:05.507Z,11.60
2018-04-27T06:20:05.301Z,11.60
2018-04-27T06:21:07.832Z,11.50
2018-04-27T06:22:05.488Z,11.50
2018-04-27T06:23:05.446Z,11.50
2018-04-27T06:24:05.883Z,11.40
2018-04-27T06:25:05.802Z,11.30
2018-04-27T06:26:06.206Z,11.30
2018-04-27T06:27:09.801Z,11.20
2018-04-27T06:28:07.785Z,11.20
2018-04-27T06:29:05.240Z,11.10
2018-04-27T06:30:06.278Z,11.10
2018-04-27T06:31:05.844Z,10.90
2018-04-27T06:32:05.905Z,11.00
2018-04-27T06:33:06.303Z,10.90
2018-04-27T06:34:11.313Z,10.90
2018-04-27T06:35:10.994Z,10.80
2018-04-27T06:36:06.454Z,10.80
2018-04-27T06:37:08.169Z,10.80
2018-04-27T06:38:05.744Z,10.80
2018-04-27T06:39:05.439Z,10.70
2018-04-27T06:40:06.082Z,10.70
2018-04-27T06:41:05.692Z,10.70
2018-04-27T06:42:06.040Z,10.70
2018-04-27T06:43:09.619Z,10.70
2018-04-27T06:44:05.319Z,10.70
2018-04-27T06:45:10.563Z,10.60
2018-04-27T06:46:09.632Z,10.60
2018-04-27T06:47:11.192Z,10.60
2018-04-27T06:48:05.552Z,10.60
2018-04-27T06:49:08.624Z,10.60
2018-04-27T06:50:05.176Z,10.60
2018-04-27T06:51:07.680Z,10.60
2018-04-27T06:52:11.325Z,10.60
2018-04-27T06:53:08.961Z,10.50
2018-04-27T06:54:10.854Z,10.50
2018-04-27T06:55:09.374Z,10.50
2018-04-27T06:56:05.894Z,10.50
2018-04-27T06:57:05.946Z,10.40
2018-04-27T06:58:08.658Z,10.40
2018-04-27T06:59:05.323Z,10.40
2018-04-27T07:00:05.158Z,10.40
2018-04-27T07:01:09.613Z,10.40
2018-04-27T07:02:05.261Z,10.40
2018-04-27T07:03:07.768Z,10.40
2018-04-27T07:04:05.424Z,10.40
2018-04-27T07:05:13.326Z,10.40
2018-04-27T07:06:09.430Z,10.40
2018-04-27T07:07:05.995Z,10.40
2018-04-27T07:08:05.954Z,10.40
2018-04-27T07:09:05.395Z,10.40
2018-04-27T07:10:06.199Z,10.40
2018-04-27T07:11:06.006Z,10.50
2018-04-27T07:12:05.443Z,10.50
2018-04-27T07:13:08.201Z,10.50
2018-04-27T07:14:05.742Z,10.60
2018-04-27T07:15:05.845Z,10.60
2018-04-27T07:16:07.900Z,10.60
2018-04-27T07:17:10.729Z,10.70
2018-04-27T07:18:05.531Z,10.70
2018-04-27T07:19:05.899Z,10.70
2018-04-27T07:20:05.903Z,10.70
2018-04-27T07:21:05.755Z,10.80
2018-04-27T07:22:08.116Z,10.90
2018-04-27T07:23:05.328Z,10.90
2018-04-27T07:24:06.097Z,11.00
2018-04-27T07:25:06.167Z,11.00
2018-04-27T07:26:10.891Z,11.20
2018-04-27T07:27:10.308Z,11.30
2018-04-27T07:28:11.041Z,11.40
2018-04-27T07:29:05.582Z,11.40
2018-04-27T07:30:05.448Z,11.50
2018-04-27T07:31:06.041Z,11.60
2018-04-27T07:32:10.554Z,11.70
2018-04-27T07:33:06.222Z,11.70
2018-04-27T07:34:08.305Z,11.90
2018-04-27T07:35:06.097Z,11.90
2018-04-27T07:36:05.965Z,11.90
2018-04-27T07:37:06.152Z,12.00
2018-04-27T07:38:05.957Z,12.10
2018-04-27T07:39:10.711Z,12.20
2018-04-27T07:40:05.406Z,12.20
2018-04-27T07:41:05.205Z,12.30
2018-04-27T07:42:09.389Z,12.40
2018-04-27T07:43:05.896Z,12.40
2018-04-27T07:44:05.867Z,12.40
2018-04-27T07:45:10.807Z,12.50
2018-04-27T07:46:08.405Z,12.50
2018-04-27T07:47:06.032Z,12.50
2018-04-27T07:48:06.013Z,12.60
2018-04-27T07:49:06.091Z,12.60
2018-04-27T07:50:11.045Z,12.70
2018-04-27T07:51:05.775Z,12.70
2018-04-27T07:52:05.444Z,12.80
2018-04-27T07:53:05.126Z,12.80
2018-04-27T07:54:05.690Z,12.90
2018-04-27T07:55:10.658Z,13.00
2018-04-27T07:56:05.099Z,13.00
2018-04-27T07:57:11.069Z,13.10
2018-04-27T07:58:10.456Z,13.10
2018-04-27T07:59:11.054Z,13.20
2018-04-27T08:00:05.677Z,13.10
2018-04-27T08:01:05.307Z,13.20
2018-04-27T08:02:09.576Z,13.20
2018-04-27T08:03:05.824Z,13.20
2018-04-27T08:04:15.361Z,13.30
2018-04-27T08:05:05.507Z,13.30
2018-04-27T08:06:05.147Z,13.30
2018-04-27T08:07:10.982Z,13.30
2018-04-27T08:08:08.578Z,13.30
2018-04-27T08:09:05.208Z,13.30
2018-04-27T08:10:05.812Z,13.30
2018-04-27T08:11:05.497Z,13.30
2018-04-27T08:12:11.272Z,13.40
2018-04-27T08:13:05.875Z,13.40
2018-04-27T08:14:08.805Z,13.50
2018-04-27T08:15:05.319Z,13.50
2018-04-27T08:16:10.877Z,13.60
2018-04-27T08:17:06.231Z,13.60
2018-04-27T08:18:05.910Z,13.70
2018-04-27T08:19:05.713Z,13.80
2018-04-27T08:20:05.594Z,13.90
2018-04-27T08:21:05.776Z,13.90
2018-04-27T08:22:08.825Z,14.00
2018-04-27T08:23:05.378Z,14.00
2018-04-27T08:24:06.022Z,14.10
2018-04-27T08:25:05.425Z,14.10
2018-04-27T08:26:05.946Z,14.20
2018-04-27T08:27:10.726Z,14.30
2018-04-27T08:28:05.202Z,14.30
2018-04-27T08:29:05.652Z,14.40
2018-04-27T08:30:08.800Z,14.50
2018-04-27T08:31:10.370Z,14.50
2018-04-27T08:32:05.916Z,14.60
2018-04-27T08:33:09.308Z,14.70
2018-04-27T08:34:08.339Z,14.80
2018-04-27T08:35:05.808Z,14.80
2018-04-27T08:36:05.741Z,14.90
2018-04-27T08:37:09.073Z,15.00
2018-04-27T08:38:05.594Z,15.00
2018-04-27T08:39:08.701Z,15.20
2018-04-27T08:40:05.397Z,15.10
2018-04-27T08:41:09.126Z,15.30
2018-04-27T08:42:08.497Z,15.30
2018-04-27T08:43:06.050Z,15.30
2018-04-27T08:44:05.327Z,15.30
2018-04-27T08:45:06.026Z,15.40
2018-04-27T08:46:06.134Z,15.40
2018-04-27T08:47:08.047Z,15.50
2018-04-27T08:48:05.641Z,15.50
2018-04-27T08:49:05.476Z,15.50
2018-04-27T08:50:08.456Z,15.40
2018-04-27T08:51:05.339Z,15.50
2018-04-27T08:52:05.287Z,15.50
2018-04-27T08:53:09.163Z,15.50
2018-04-27T08:54:05.757Z,15.60
2018-04-27T08:55:05.575Z,15.50
2018-04-27T08:56:08.672Z,15.50
2018-04-27T08:57:05.213Z,15.40
2018-04-27T08:58:07.244Z,15.50
2018-04-27T08:59:05.600Z,15.50
2018-04-27T09:00:07.973Z,15.50
2018-04-27T09:01:05.881Z,15.50
2018-04-27T09:02:05.943Z,15.50
2018-04-27T09:03:05.773Z,15.50
2018-04-27T09:04:10.673Z,15.70
2018-04-27T09:05:05.138Z,15.60
2018-04-27T09:06:06.089Z,15.70
2018-04-27T09:07:05.769Z,15.70
2018-04-27T09:08:05.403Z,15.70
2018-04-27T09:09:09.124Z,15.80
2018-04-27T09:10:05.751Z,15.80
2018-04-27T09:11:08.716Z,15.80
2018-04-27T09:12:05.300Z,15.80
2018-04-27T09:13:06.144Z,15.90
2018-04-27T09:14:08.827Z,15.90
2018-04-27T09:15:10.369Z,15.90
2018-04-27T09:16:05.797Z,15.90
2018-04-27T09:17:05.500Z,15.90
2018-04-27T09:18:08.515Z,15.90
2018-04-27T09:19:06.141Z,15.90
2018-04-27T09:20:05.756Z,15.90
2018-04-27T09:21:05.845Z,15.90
2018-04-27T09:22:08.850Z,16.00
2018-04-27T09:23:05.555Z,15.90
2018-04-27T09:24:06.198Z,15.90
2018-04-27T09:25:09.088Z,16.00
2018-04-27T09:26:08.884Z,16.00
2018-04-27T09:27:08.810Z,16.00
2018-04-27T09:28:08.222Z,16.00
2018-04-27T09:29:05.965Z,16.00
2018-04-27T09:30:08.516Z,16.10
2018-04-27T09:31:05.932Z,16.00
2018-04-27T09:32:08.387Z,16.10
2018-04-27T09:33:05.858Z,16.10
2018-04-27T09:34:13.208Z,16.10
2018-04-27T09:35:05.752Z,16.10
2018-04-27T09:36:05.898Z,16.10
2018-04-27T09:37:08.411Z,16.10
2018-04-27T09:38:08.892Z,16.10
2018-04-27T09:39:10.720Z,16.10
2018-04-27T09:40:05.374Z,16.10
2018-04-27T09:41:08.792Z,16.20
2018-04-27T09:42:05.446Z,16.10
2018-04-27T09:43:05.783Z,16.20
2018-04-27T09:44:05.655Z,16.20
2018-04-27T09:45:10.424Z,16.30
2018-04-27T09:46:05.911Z,16.30
2018-04-27T09:47:06.073Z,16.30
2018-04-27T09:48:08.566Z,16.30
2018-04-27T09:49:06.081Z,16.30
2018-04-27T09:50:08.609Z,16.40
2018-04-27T09:51:09.254Z,16.40
2018-04-27T09:52:09.972Z,16.30
2018-04-27T09:53:10.483Z,16.40
2018-04-27T09:54:08.365Z,16.40
2018-04-27T09:55:08.883Z,16.40
2018-04-27T09:56:07.936Z,16.40
2018-04-27T09:57:08.786Z,16.40
2018-04-27T09:58:05.271Z,16.40
2018-04-27T09:59:05.860Z,16.40
2018-04-27T10:00:08.980Z,16.40
2018-04-27T10:01:05.500Z,16.40
2018-04-27T10:02:05.389Z,16.40
2018-04-27T10:03:05.637Z,16.40
2018-04-27T10:04:05.468Z,16.40
2018-04-27T10:05:06.231Z,16.40
2018-04-27T10:06:08.570Z,16.50
2018-04-27T10:07:06.157Z,16.40
2018-04-27T10:08:10.869Z,16.50
2018-04-27T10:09:05.680Z,16.50
2018-04-27T10:10:08.066Z,16.50
2018-04-27T10:11:05.500Z,16.50
2018-04-27T10:12:05.945Z,16.60
2018-04-27T10:13:05.620Z,16.60
2018-04-27T10:14:05.404Z,16.70
2018-04-27T10:15:08.832Z,16.70
2018-04-27T10:16:08.867Z,16.80
2018-04-27T10:17:05.557Z,16.70
2018-04-27T10:18:05.734Z,16.70
2018-04-27T10:19:05.467Z,16.70
2018-04-27T10:20:06.242Z,16.70
2018-04-27T10:21:05.984Z,16.60
2018-04-27T10:22:05.808Z,16.70
2018-04-27T10:23:05.542Z,16.60
2018-04-27T10:24:10.637Z,16.70
2018-04-27T10:25:09.831Z,16.70
2018-04-27T10:26:08.609Z,16.70
2018-04-27T10:27:09.316Z,16.70
2018-04-27T10:28:06.029Z,16.70
2018-04-27T10:29:05.719Z,16.80
2018-04-27T10:30:05.562Z,16.80
2018-04-27T10:31:05.668Z,16.80
2018-04-27T10:32:05.851Z,16.80
2018-04-27T10:33:05.685Z,16.80
2018-04-27T10:34:05.582Z,16.90
2018-04-27T10:35:08.877Z,16.90
2018-04-27T10:36:05.724Z,16.90
2018-04-27T10:37:10.471Z,16.80
2018-04-27T10:38:05.779Z,16.90
2018-04-27T10:39:08.787Z,16.90
2018-04-27T10:40:05.530Z,16.90
2018-04-27T10:41:05.422Z,17.00
2018-04-27T10:42:06.355Z,16.90
2018-04-27T10:43:05.426Z,17.00
2018-04-27T10:44:06.045Z,17.00
2018-04-27T10:45:09.162Z,17.10
2018-04-27T10:46:05.621Z,17.10
2018-04-27T10:47:08.711Z,17.10
2018-04-27T10:48:08.764Z,17.20
2018-04-27T10:49:05.987Z,17.20
2018-04-27T10:50:05.869Z,17.20
2018-04-27T10:51:08.966Z,17.20
2018-04-27T10:52:05.612Z,17.10
2018-04-27T10:53:05.958Z,17.20
2018-04-27T10:54:10.883Z,17.20
2018-04-27T10:55:08.405Z,17.20
2018-04-27T10:56:06.033Z,17.20
2018-04-27T10:57:05.619Z,17.20
2018-04-27T10:58:08.132Z,17.20
2018-04-27T10:59:05.764Z,17.20
2018-04-27T11:00:05.589Z,17.20
2018-04-27T11:01:05.690Z,17.20
2018-04-27T11:02:05.973Z,17.10
2018-04-27T11:03:05.866Z,17.10
2018-04-27T11:04:05.605Z,17.10
2018-04-27T11:05:05.253Z,17.10
2018-04-27T11:06:05.509Z,17.20
2018-04-27T11:07:06.107Z,17.20
2018-04-27T11:08:05.731Z,17.20
2018-04-27T11:09:15.902Z,17.20
2018-04-27T11:10:07.918Z,17.20
2018-04-27T11:11:05.699Z,17.20
2018-04-27T11:12:05.166Z,17.20
2018-04-27T11:13:08.232Z,17.20
2018-04-27T11:14:05.820Z,17.20
2018-04-27T11:15:08.881Z,17.20
2018-04-27T11:16:05.518Z,17.20
2018-04-27T11:17:05.313Z,17.30
2018-04-27T11:18:08.755Z,17.30
2018-04-27T11:19:08.760Z,17.30
2018-04-27T11:20:05.344Z,17.30
2018-04-27T11:21:05.368Z,17.30
2018-04-27T11:22:08.823Z,17.30
2018-04-27T11:23:05.520Z,17.30
2018-04-27T11:24:05.297Z,17.30
2018-04-27T11:25:06.108Z,17.30
2018-04-27T11:26:06.802Z,17.30
2018-04-27T11:27:06.089Z,17.30
2018-04-27T11:28:05.996Z,17.30
2018-04-27T11:29:05.850Z,17.30
2018-04-27T11:30:10.433Z,17.30
2018-04-27T11:31:05.406Z,17.30
2018-04-27T11:32:05.146Z,17.30
2018-04-27T11:33:10.887Z,17.20
2018-04-27T11:34:10.388Z,17.30
2018-04-27T11:35:09.176Z,17.30
2018-04-27T11:36:05.844Z,17.20
2018-04-27T11:37:05.862Z,17.30
2018-04-27T11:38:08.674Z,17.30
2018-04-27T11:39:10.440Z,17.20
2018-04-27T11:40:08.447Z,17.30
2018-04-27T11:41:06.173Z,17.20
2018-04-27T11:42:05.197Z,17.20
2018-04-27T11:43:05.205Z,17.20
2018-04-27T11:44:08.555Z,17.30
2018-04-27T11:45:09.714Z,17.40
2018-04-27T11:46:07.862Z,17.40
2018-04-27T11:47:08.295Z,17.40
2018-04-27T11:48:05.920Z,17.40
2018-04-27T11:49:05.867Z,17.40
2018-04-27T11:50:05.802Z,17.40
2018-04-27T11:51:05.600Z,17.50
2018-04-27T11:52:05.544Z,17.50
2018-04-27T11:53:05.404Z,17.60
2018-04-27T11:54:05.959Z,17.50
2018-04-27T11:55:05.952Z,17.60
2018-04-27T11:56:05.787Z,17.70
2018-04-27T11:57:09.289Z,17.70
2018-04-27T11:58:08.830Z,17.70
2018-04-27T11:59:05.471Z,17.70
2018-04-27T12:00:05.999Z,17.80
2018-04-27T12:01:05.492Z,17.80
2018-04-27T12:02:05.512Z,17.80
2018-04-27T12:03:05.183Z,17.80
2018-04-27T12:04:05.330Z,17.80
2018-04-27T12:05:05.973Z,17.80
2018-04-27T12:06:09.132Z,17.80
2018-04-27T12:07:05.829Z,17.80
2018-04-27T12:08:10.955Z,17.70
2018-04-27T12:09:05.530Z,17.70
2018-04-27T12:10:05.584Z,17.70
2018-04-27T12:11:12.929Z,17.60
2018-04-27T12:12:05.522Z,17.60
2018-04-27T12:13:05.635Z,17.60
2018-04-27T12:14:06.019Z,17.70
2018-04-27T12:15:06.060Z,17.70
2018-04-27T12:16:06.215Z,17.70
2018-04-27T12:17:06.135Z,17.70
2018-04-27T12:18:05.817Z,17.70
2018-04-27T12:19:05.559Z,17.70
2018-04-27T12:20:05.485Z,17.80
2018-04-27T12:21:05.395Z,17.80
2018-04-27T12:22:06.307Z,17.80
2018-04-27T12:23:06.375Z,17.90
2018-04-27T12:24:05.717Z,17.90
2018-04-27T12:25:05.873Z,18.00
2018-04-27T12:26:06.047Z,18.00
2018-04-27T12:27:06.566Z,18.00
2018-04-27T12:28:05.618Z,18.00
2018-04-27T12:29:08.363Z,18.00
2018-04-27T12:30:05.957Z,18.00
2018-04-27T12:31:10.658Z,18.00
2018-04-27T12:32:08.484Z,18.00
2018-04-27T12:33:06.164Z,18.00
2018-04-27T12:34:10.829Z,17.90
2018-04-27T12:35:05.277Z,17.90
2018-04-27T12:36:06.458Z,17.90
2018-04-27T12:37:06.237Z,17.90
2018-04-27T12:38:05.957Z,17.80
2018-04-27T12:39:10.477Z,17.80
2018-04-27T12:40:08.373Z,17.80
2018-04-27T12:41:08.329Z,17.80
2018-04-27T12:42:06.406Z,17.70
2018-04-27T12:43:06.587Z,17.80
2018-04-27T12:44:06.019Z,17.70
2018-04-27T12:45:11.017Z,17.70
2018-04-27T12:46:10.675Z,17.70
2018-04-27T12:47:10.371Z,17.70
2018-04-27T12:48:05.874Z,17.80
2018-04-27T12:49:05.334Z,17.80
2018-04-27T12:50:07.827Z,17.80
2018-04-27T12:51:05.536Z,17.80
2018-04-27T12:52:05.405Z,17.80
2018-04-27T12:53:06.001Z,17.80
2018-04-27T12:54:05.791Z,17.80
2018-04-27T12:55:08.528Z,17.80
2018-04-27T12:56:09.381Z,17.90
2018-04-27T12:57:05.941Z,17.90
2018-04-27T12:58:09.048Z,17.90
2018-04-27T12:59:10.658Z,17.90
2018-04-27T13:00:06.137Z,17.90
2018-04-27T13:01:10.805Z,18.00
2018-04-27T13:02:05.284Z,17.90
2018-04-27T13:03:11.626Z,18.00